createdAt,value
2018-09-27T00:02:18.334Z,15.40
2018-09-27T00:04:46.383Z,15.40
2018-09-27T00:07:14.439Z,15.50
2018-09-27T00:09:42.533Z,15.40
2018-09-27T00:12:10.595Z,15.40
2018-09-27T00:14:38.720Z,15.40
2018-09-27T00:17:06.791Z,15.40
2018-09-27T00:19:34.904Z,15.30
2018-09-27T00:22:02.934Z,15.40
2018-09-27T00:24:31.770Z,15.30
2018-09-27T00:27:00.125Z,15.30
2018-09-27T00:29:28.151Z,15.40
2018-09-27T00:31:56.231Z,15.40
2018-09-27T00:34:24.282Z,15.40
2018-09-27T00:36:52.326Z,15.40
2018-09-27T00:39:20.478Z,15.40
2018-09-27T00:41:48.570Z,15.40
2018-09-27T00:44:16.644Z,15.40
2018-09-27T00:46:44.910Z,15.40
2018-09-27T00:49:13.071Z,15.50
2018-09-27T00:51:41.109Z,15.50
2018-09-27T00:54:09.170Z,15.50
2018-09-27T00:56:37.217Z,15.50
2018-09-27T00:59:05.268Z,15.50
2018-09-27T01:01:33.329Z,15.50
2018-09-27T01:04:01.418Z,15.60
2018-09-27T01:06:29.576Z,15.50
2018-09-27T01:08:57.627Z,15.60
2018-09-27T01:11:25.705Z,15.70
2018-09-27T01:13:54.757Z,15.60
2018-09-27T01:16:22.810Z,15.60
2018-09-27T01:18:50.869Z,15.50
2018-09-27T01:21:18.933Z,15.60
2018-09-27T01:23:46.986Z,15.60
2018-09-27T01:26:15.054Z,15.60
2018-09-27T01:28:43.286Z,15.60
2018-09-27T01:31:11.340Z,15.60
2018-09-27T01:33:39.398Z,15.60
2018-09-27T01:36:07.609Z,15.50
2018-09-27T01:38:35.650Z,15.50
2018-09-27T01:41:03.697Z,15.60
2018-09-27T01:43:31.725Z,15.60
2018-09-27T01:45:59.782Z,15.70
2018-09-27T01:48:27.877Z,15.70
2018-09-27T01:50:55.951Z,15.70
2018-09-27T01:53:24.136Z,15.70
2018-09-27T01:55:52.298Z,15.60
2018-09-27T01:58:20.338Z,15.60
2018-09-27T02:00:48.386Z,15.60
2018-09-27T02:03:16.429Z,15.60
2018-09-27T02:05:44.470Z,15.60
2018-09-27T02:08:12.562Z,15.70
2018-09-27T02:10:40.801Z,15.70
2018-09-27T02:13:08.889Z,15.70
2018-09-27T02:15:36.946Z,15.70
2018-09-27T02:18:05.013Z,15.70
2018-09-27T02:20:33.073Z,15.70
2018-09-27T02:23:01.162Z,15.70
2018-09-27T02:25:29.228Z,15.70
2018-09-27T02:27:57.289Z,15.70
2018-09-27T02:30:25.434Z,15.70
2018-09-27T02:32:53.528Z,15.70
2018-09-27T02:35:21.626Z,15.70
2018-09-27T02:37:49.723Z,15.70
2018-09-27T02:40:17.819Z,15.70
2018-09-27T02:42:45.890Z,15.70
2018-09-27T02:45:14.002Z,15.70
2018-09-27T02:47:43.443Z,15.70
2018-09-27T02:50:11.512Z,15.70
2018-09-27T02:52:39.594Z,15.70
2018-09-27T02:55:07.684Z,15.70
2018-09-27T02:57:36.812Z,15.70
2018-09-27T03:00:04.948Z,15.70
2018-09-27T03:02:33.197Z,15.70
2018-09-27T03:05:01.281Z,15.70
2018-09-27T03:07:29.445Z,15.70
2018-09-27T03:09:57.546Z,15.70
2018-09-27T03:12:25.770Z,15.70
2018-09-27T03:14:54.076Z,15.70
2018-09-27T03:17:22.151Z,15.70
2018-09-27T03:19:50.231Z,15.70
2018-09-27T03:22:18.311Z,15.70
2018-09-27T03:24:46.390Z,15.70
2018-09-27T03:27:14.508Z,15.70
2018-09-27T03:29:42.576Z,15.70
2018-09-27T03:32:10.653Z,15.70
2018-09-27T03:34:39.716Z,15.60
2018-09-27T03:37:07.807Z,15.60
2018-09-27T03:39:35.923Z,15.60
2018-09-27T03:42:03.978Z,15.70
2018-09-27T03:44:32.170Z,15.60
2018-09-27T03:47:00.266Z,15.60
2018-09-27T03:49:28.344Z,15.60
2018-09-27T03:51:56.419Z,15.70
2018-09-27T03:54:24.474Z,15.60
2018-09-27T03:56:52.549Z,15.60
2018-09-27T03:59:20.907Z,15.60
2018-09-27T04:01:49.057Z,15.50
2018-09-27T04:04:17.911Z,15.60
2018-09-27T04:06:46.023Z,15.50
2018-09-27T04:09:14.091Z,15.50
2018-09-27T04:11:42.167Z,15.50
2018-09-27T04:14:10.490Z,15.40
2018-09-27T04:16:38.583Z,15.40
2018-09-27T04:19:06.656Z,15.30
2018-09-27T04:21:34.766Z,15.30
2018-09-27T04:24:02.905Z,15.40
2018-09-27T04:26:30.940Z,15.40
2018-09-27T04:28:59.510Z,15.40
2018-09-27T04:31:27.609Z,15.30
2018-09-27T04:33:55.866Z,15.40
2018-09-27T04:36:23.899Z,15.30
2018-09-27T04:38:51.965Z,15.30
2018-09-27T04:41:20.303Z,15.30
2018-09-27T04:43:48.390Z,15.30
2018-09-27T04:46:16.479Z,15.30
2018-09-27T04:48:44.578Z,15.20
2018-09-27T04:51:12.660Z,15.20
2018-09-27T04:53:40.728Z,15.10
2018-09-27T04:56:08.810Z,15.10
2018-09-27T04:58:37.985Z,15.10
2018-09-27T05:01:06.127Z,15.10
2018-09-27T05:03:34.223Z,15.00
2018-09-27T05:06:02.340Z,15.00
2018-09-27T05:08:30.414Z,15.00
2018-09-27T05:10:59.309Z,15.00
2018-09-27T05:13:27.717Z,14.90
2018-09-27T05:15:55.854Z,14.90
2018-09-27T05:18:23.966Z,14.90
2018-09-27T05:20:52.046Z,14.90
2018-09-27T05:23:20.153Z,14.90
2018-09-27T05:25:48.273Z,14.90
2018-09-27T05:28:16.397Z,14.90
2018-09-27T05:30:44.470Z,14.90
2018-09-27T05:33:12.823Z,14.90
2018-09-27T05:35:40.890Z,14.90
2018-09-27T05:38:08.963Z,14.90
2018-09-27T05:40:37.063Z,14.90
2018-09-27T05:43:05.202Z,14.80
2018-09-27T05:45:33.335Z,14.80
2018-09-27T05:48:01.379Z,14.80
2018-09-27T05:50:29.459Z,14.80
2018-09-27T05:52:59.121Z,14.90
2018-09-27T05:55:27.201Z,14.80
2018-09-27T05:57:55.271Z,14.80
2018-09-27T06:00:23.346Z,14.80
2018-09-27T06:02:51.428Z,14.90
2018-09-27T06:05:20.689Z,14.90
2018-09-27T06:07:50.237Z,14.90
2018-09-27T06:10:18.315Z,15.20
2018-09-27T06:12:46.395Z,15.20
2018-09-27T06:15:14.615Z,15.20
2018-09-27T06:17:42.703Z,15.40
2018-09-27T06:20:10.814Z,15.20
2018-09-27T06:22:39.186Z,14.90
2018-09-27T06:25:07.277Z,15.00
2018-09-27T06:27:35.349Z,15.00
2018-09-27T06:30:03.587Z,15.00
2018-09-27T06:32:31.770Z,15.10
2018-09-27T06:35:00.054Z,15.20
2018-09-27T06:37:28.103Z,15.20
2018-09-27T06:39:56.189Z,15.20
2018-09-27T06:42:24.269Z,15.40
2018-09-27T06:44:52.475Z,15.40
2018-09-27T06:47:20.545Z,15.20
2018-09-27T06:49:48.618Z,15.20
2018-09-27T06:52:16.697Z,15.20
2018-09-27T06:54:44.804Z,15.00
2018-09-27T06:57:12.875Z,15.10
2018-09-27T06:59:40.968Z,15.20
2018-09-27T07:02:09.051Z,15.30
2018-09-27T07:04:37.137Z,15.20
2018-09-27T07:07:05.261Z,15.30
2018-09-27T07:09:33.343Z,15.20
2018-09-27T07:12:01.502Z,15.30
2018-09-27T07:14:29.566Z,15.30
2018-09-27T07:16:57.615Z,15.30
2018-09-27T07:19:25.699Z,15.10
2018-09-27T07:21:53.795Z,15.20
2018-09-27T07:24:21.866Z,15.20
2018-09-27T07:26:50.283Z,15.30
2018-09-27T07:29:18.319Z,15.40
2018-09-27T07:31:46.716Z,15.30
2018-09-27T07:34:15.091Z,15.20
2018-09-27T07:36:43.227Z,15.40
2018-09-27T07:39:12.182Z,15.40
2018-09-27T07:41:40.579Z,15.30
2018-09-27T07:44:09.262Z,15.10
2018-09-27T07:46:37.739Z,15.20
2018-09-27T07:49:05.862Z,15.20
2018-09-27T07:51:33.936Z,15.40
2018-09-27T07:54:02.146Z,15.50
2018-09-27T07:56:30.280Z,15.50
2018-09-27T07:58:58.374Z,15.40
2018-09-27T08:01:26.459Z,15.50
2018-09-27T08:03:54.559Z,15.60
2018-09-27T08:06:22.701Z,15.40
2018-09-27T08:08:50.890Z,15.50
2018-09-27T08:11:19.054Z,15.70
2018-09-27T08:13:47.170Z,15.70
2018-09-27T08:16:15.250Z,15.70
2018-09-27T08:18:43.543Z,15.70
2018-09-27T08:21:11.746Z,15.80
2018-09-27T08:23:39.734Z,15.70
2018-09-27T08:26:07.831Z,15.80
2018-09-27T08:28:35.935Z,15.80
2018-09-27T08:31:04.146Z,15.80
2018-09-27T08:33:32.282Z,16.00
2018-09-27T08:36:00.402Z,15.90
2018-09-27T08:38:28.712Z,15.80
2018-09-27T08:40:57.416Z,16.00
2018-09-27T08:43:25.505Z,16.00
2018-09-27T08:45:53.927Z,16.10
2018-09-27T08:48:21.962Z,16.40
2018-09-27T08:50:50.089Z,16.40
2018-09-27T08:53:18.238Z,16.40
2018-09-27T08:55:46.388Z,16.40
2018-09-27T08:58:14.635Z,16.70
2018-09-27T09:00:42.805Z,16.80
2018-09-27T09:03:10.898Z,16.80
2018-09-27T09:05:39.283Z,16.80
2018-09-27T09:08:07.592Z,16.50
2018-09-27T09:10:35.786Z,16.70
2018-09-27T09:13:03.897Z,16.70
2018-09-27T09:15:31.993Z,16.90
2018-09-27T09:18:00.091Z,17.00
2018-09-27T09:20:28.259Z,17.00
2018-09-27T09:22:56.382Z,17.20
2018-09-27T09:25:24.483Z,17.40
2018-09-27T09:27:52.829Z,17.50
2018-09-27T09:30:21.206Z,17.50
2018-09-27T09:32:49.449Z,17.40
2018-09-27T09:35:17.798Z,17.40
2018-09-27T09:37:45.871Z,17.50
2018-09-27T09:40:13.960Z,17.60
2018-09-27T09:42:42.175Z,17.70
2018-09-27T09:45:10.266Z,17.80
2018-09-27T09:47:39.238Z,18.00
2018-09-27T09:50:07.602Z,18.00
2018-09-27T09:52:35.629Z,18.10
2018-09-27T09:55:03.850Z,18.10
2018-09-27T09:57:32.032Z,18.20
2018-09-27T10:00:00.131Z,18.30
2018-09-27T10:02:28.299Z,18.40
2018-09-27T10:04:56.338Z,18.40
2018-09-27T10:07:24.407Z,18.50
2018-09-27T10:09:52.507Z,18.70
2018-09-27T10:12:20.807Z,18.60
2018-09-27T10:14:48.890Z,18.50
2018-09-27T10:17:17.001Z,18.60
2018-09-27T10:19:45.071Z,18.50
2018-09-27T10:22:13.241Z,18.60
2018-09-27T10:24:41.926Z,18.60
2018-09-27T10:27:10.215Z,18.70
2018-09-27T10:29:38.502Z,18.70
2018-09-27T10:32:07.159Z,18.80
2018-09-27T10:34:35.422Z,18.80
2018-09-27T10:37:03.469Z,18.80
2018-09-27T10:39:31.588Z,18.90
2018-09-27T10:41:59.752Z,19.10
2018-09-27T10:44:27.875Z,19.30
2018-09-27T10:46:55.972Z,19.30
2018-09-27T10:49:24.268Z,19.30
2018-09-27T10:51:52.374Z,19.30
2018-09-27T10:54:20.504Z,19.40
2018-09-27T10:56:48.619Z,19.30
2018-09-27T10:59:16.714Z,19.30
2018-09-27T11:01:44.803Z,19.30
2018-09-27T11:04:13.469Z,19.40
2018-09-27T11:06:41.479Z,19.50
2018-09-27T11:09:10.065Z,19.50
2018-09-27T11:11:38.372Z,19.50
2018-09-27T11:14:07.140Z,19.50
2018-09-27T11:16:36.656Z,19.60
2018-09-27T11:19:05.068Z,19.70
2018-09-27T11:21:33.207Z,19.80
2018-09-27T11:24:01.274Z,19.80
2018-09-27T11:26:29.371Z,19.70
2018-09-27T11:29:02.704Z,19.80
2018-09-27T11:31:36.143Z,19.90
2018-09-27T11:34:04.395Z,20.00
2018-09-27T11:36:32.511Z,20.00
2018-09-27T11:39:00.611Z,19.80
2018-09-27T11:41:28.679Z,19.80
2018-09-27T11:43:56.798Z,19.90
2018-09-27T11:46:24.891Z,19.90
2018-09-27T11:48:53.006Z,19.90
2018-09-27T11:51:21.077Z,20.00
2018-09-27T11:53:49.287Z,19.80
2018-09-27T11:56:17.387Z,19.80
2018-09-27T11:58:45.478Z,20.00
2018-09-27T12:01:13.601Z,19.90
2018-09-27T12:03:41.686Z,20.00
2018-09-27T12:06:09.763Z,19.90
2018-09-27T12:08:37.835Z,19.90
2018-09-27T12:11:05.993Z,19.90
2018-09-27T12:13:34.283Z,19.90
2018-09-27T12:16:02.442Z,20.00
2018-09-27T12:18:30.530Z,20.10
2018-09-27T12:20:58.611Z,20.00
2018-09-27T12:23:26.709Z,19.90
2018-09-27T12:25:54.812Z,20.00
2018-09-27T12:28:22.942Z,20.20
2018-09-27T12:30:51.231Z,20.10
2018-09-27T12:33:19.291Z,20.20
2018-09-27T12:35:48.195Z,20.30
2018-09-27T12:38:16.451Z,20.40
2018-09-27T12:40:44.570Z,20.40
2018-09-27T12:43:12.598Z,20.40
2018-09-27T12:45:40.769Z,20.30
2018-09-27T12:48:08.842Z,20.40
2018-09-27T12:50:37.775Z,20.50
2018-09-27T12:53:05.982Z,20.60
2018-09-27T12:55:34.433Z,20.60
2018-09-27T12:58:02.811Z,20.50
2018-09-27T13:00:30.983Z,20.40
2018-09-27T13:02:59.275Z,20.40
2018-09-27T13:05:27.255Z,20.30
2018-09-27T13:07:55.401Z,20.30
2018-09-27T13:10:24.388Z,20.30
2018-09-27T13:12:52.555Z,20.30
2018-09-27T13:15:20.601Z,20.40
2018-09-27T13:17:48.688Z,20.60
2018-09-27T13:20:16.902Z,20.60
2018-09-27T13:22:44.975Z,20.60
2018-09-27T13:25:13.171Z,20.60
2018-09-27T13:27:41.299Z,20.60
2018-09-27T13:30:09.611Z,20.80
2018-09-27T13:32:37.838Z,20.90
2018-09-27T13:35:05.901Z,20.80
2018-09-27T13:37:33.976Z,20.90
2018-09-27T13:40:02.200Z,20.90
2018-09-27T13:42:30.407Z,20.90
2018-09-27T13:44:58.543Z,20.70
2018-09-27T13:47:26.597Z,20.60
2018-09-27T13:49:54.680Z,20.60
2018-09-27T13:52:22.748Z,20.50
2018-09-27T13:54:50.884Z,20.50
2018-09-27T13:57:19.041Z,20.50
2018-09-27T13:59:47.250Z,20.50
2018-09-27T14:02:15.338Z,20.40
2018-09-27T14:04:43.416Z,20.40
2018-09-27T14:07:11.507Z,20.50
2018-09-27T14:09:39.807Z,20.50
2018-09-27T14:12:07.881Z,20.50
2018-09-27T14:14:36.388Z,20.50
2018-09-27T14:17:04.489Z,20.60
2018-09-27T14:19:32.749Z,20.60
2018-09-27T14:22:00.815Z,20.40
2018-09-27T14:24:28.915Z,20.40
2018-09-27T14:26:56.997Z,20.50
2018-09-27T14:29:25.120Z,20.50
2018-09-27T14:31:53.266Z,20.50
2018-09-27T14:34:21.472Z,20.60
2018-09-27T14:36:49.561Z,20.80
2018-09-27T14:39:17.649Z,20.70
2018-09-27T14:41:45.758Z,20.60
2018-09-27T14:44:13.838Z,20.50
2018-09-27T14:46:41.944Z,20.40
2018-09-27T14:49:10.055Z,20.40
2018-09-27T14:51:38.136Z,20.40
2018-09-27T14:54:06.259Z,20.40
2018-09-27T14:56:34.379Z,20.30
2018-09-27T14:59:02.442Z,20.30
2018-09-27T15:01:30.518Z,20.30
2018-09-27T15:03:59.551Z,20.30
2018-09-27T15:06:27.665Z,20.30
2018-09-27T15:08:55.714Z,20.30
2018-09-27T15:11:23.946Z,20.30
2018-09-27T15:13:52.151Z,20.30
2018-09-27T15:16:20.272Z,20.30
2018-09-27T15:18:48.318Z,20.30
2018-09-27T15:21:16.386Z,20.30
2018-09-27T15:23:44.475Z,20.20
2018-09-27T15:26:12.559Z,20.20
2018-09-27T15:28:40.645Z,20.10
2018-09-27T15:31:08.743Z,20.10
2018-09-27T15:33:36.896Z,20.10
2018-09-27T15:36:05.139Z,20.10
2018-09-27T15:38:33.484Z,20.10
2018-09-27T15:41:01.567Z,20.00
2018-09-27T15:43:29.649Z,20.00
2018-09-27T15:45:57.775Z,20.00
2018-09-27T15:48:25.851Z,20.00
2018-09-27T15:50:54.125Z,20.10
2018-09-27T15:53:22.293Z,20.00
2018-09-27T15:55:51.098Z,20.00
2018-09-27T15:58:19.214Z,20.10
2018-09-27T16:00:47.288Z,20.10
2018-09-27T16:03:15.358Z,20.00
2018-09-27T16:05:43.433Z,20.00
2018-09-27T16:08:11.510Z,20.00
2018-09-27T16:10:39.628Z,20.00
2018-09-27T16:13:07.710Z,20.00
2018-09-27T16:15:35.787Z,20.00
2018-09-27T16:18:04.498Z,20.00
2018-09-27T16:20:32.578Z,20.00
2018-09-27T16:23:00.643Z,19.90
2018-09-27T16:25:28.731Z,19.90
2018-09-27T16:27:56.821Z,19.90
2018-09-27T16:30:24.906Z,19.90
2018-09-27T16:32:52.991Z,20.00
2018-09-27T16:35:21.093Z,20.00
2018-09-27T16:37:49.173Z,19.90
2018-09-27T16:40:17.279Z,19.90
2018-09-27T16:42:45.331Z,20.00
2018-09-27T16:45:13.519Z,20.00
2018-09-27T16:47:41.621Z,20.00
2018-09-27T16:50:09.678Z,20.00
2018-09-27T16:52:37.750Z,20.00
2018-09-27T16:55:05.851Z,20.10
2018-09-27T16:57:33.907Z,20.20
2018-09-27T17:00:01.993Z,20.20
2018-09-27T17:02:30.088Z,20.20
2018-09-27T17:04:58.171Z,20.10
2018-09-27T17:07:26.239Z,20.10
2018-09-27T17:09:54.516Z,20.10
2018-09-27T17:12:22.619Z,20.10
2018-09-27T17:14:50.738Z,20.00
2018-09-27T17:17:18.886Z,19.90
2018-09-27T17:19:46.956Z,19.90
2018-09-27T17:22:15.043Z,19.80
2018-09-27T17:24:43.219Z,19.80
2018-09-27T17:27:11.251Z,19.80
2018-09-27T17:29:39.358Z,19.80
2018-09-27T17:32:07.439Z,19.70
2018-09-27T17:34:35.686Z,19.70
2018-09-27T17:37:04.447Z,19.60
2018-09-27T17:39:32.595Z,19.60
2018-09-27T17:42:00.792Z,19.60
2018-09-27T17:44:28.860Z,19.60
2018-09-27T17:46:56.939Z,19.60
2018-09-27T17:49:25.327Z,19.60
2018-09-27T17:51:53.395Z,19.50
2018-09-27T17:54:21.552Z,19.40
2018-09-27T17:56:49.619Z,19.40
2018-09-27T17:59:19.061Z,19.50
2018-09-27T18:01:47.217Z,19.50
2018-09-27T18:04:15.210Z,19.50
2018-09-27T18:06:43.324Z,19.50
2018-09-27T18:09:12.608Z,19.40
2018-09-27T18:11:41.499Z,19.40
2018-09-27T18:14:09.524Z,19.40
2018-09-27T18:16:37.873Z,19.30
2018-09-27T18:19:06.266Z,19.30
2018-09-27T18:21:34.396Z,19.30
2018-09-27T18:24:02.603Z,19.20
2018-09-27T18:26:30.701Z,19.20
2018-09-27T18:28:58.807Z,19.20
2018-09-27T18:31:27.040Z,19.20
2018-09-27T18:33:55.135Z,19.10
2018-09-27T18:36:23.256Z,19.10
2018-09-27T18:38:51.538Z,19.00
2018-09-27T18:41:19.621Z,19.00
2018-09-27T18:43:47.703Z,18.90
2018-09-27T18:46:15.784Z,18.80
2018-09-27T18:48:43.965Z,18.80
2018-09-27T18:51:12.076Z,18.80
2018-09-27T18:53:40.148Z,18.80
2018-09-27T18:56:08.297Z,18.80
2018-09-27T18:58:36.421Z,18.70
2018-09-27T19:01:04.593Z,18.80
2018-09-27T19:03:32.780Z,18.80
2018-09-27T19:06:01.344Z,18.80
2018-09-27T19:08:29.662Z,18.70
2018-09-27T19:10:58.666Z,18.60
2018-09-27T19:13:27.094Z,18.50
2018-09-27T19:15:56.927Z,18.40
2018-09-27T19:18:26.912Z,18.40
2018-09-27T19:20:56.377Z,18.40
2018-09-27T19:23:24.525Z,18.40
2018-09-27T19:25:52.617Z,18.30
2018-09-27T19:28:20.749Z,18.40
2018-09-27T19:30:48.882Z,18.30
2018-09-27T19:33:17.002Z,18.30
2018-09-27T19:35:45.099Z,18.30
2018-09-27T19:38:13.204Z,18.30
2018-09-27T19:40:41.311Z,18.50
2018-09-27T19:43:09.401Z,18.50
2018-09-27T19:45:37.498Z,18.50
2018-09-27T19:48:05.919Z,18.50
2018-09-27T19:50:34.007Z,18.50
2018-09-27T19:53:02.109Z,18.50
2018-09-27T19:55:30.219Z,18.40
2018-09-27T19:57:58.481Z,18.40
2018-09-27T20:00:26.531Z,18.40
2018-09-27T20:02:54.655Z,18.40
2018-09-27T20:05:22.766Z,18.40
2018-09-27T20:07:50.879Z,18.40
2018-09-27T20:10:19.006Z,18.30
2018-09-27T20:12:47.123Z,18.40
2018-09-27T20:15:15.313Z,18.20
2018-09-27T20:17:44.019Z,18.10
2018-09-27T20:20:12.275Z,18.10
2018-09-27T20:22:40.359Z,18.20
2018-09-27T20:25:08.455Z,18.20
2018-09-27T20:27:37.872Z,18.20
2018-09-27T20:30:06.134Z,18.20
2018-09-27T20:32:34.290Z,18.20
2018-09-27T20:35:02.650Z,18.10
2018-09-27T20:37:30.954Z,18.10
2018-09-27T20:39:59.033Z,18.10
2018-09-27T20:42:27.163Z,18.00
2018-09-27T20:44:55.214Z,17.90
2018-09-27T20:47:23.329Z,18.00
2018-09-27T20:49:51.412Z,17.90
2018-09-27T20:52:19.491Z,17.80
2018-09-27T20:54:47.575Z,17.70
2018-09-27T20:57:15.646Z,17.80
2018-09-27T20:59:43.731Z,17.70
2018-09-27T21:02:11.821Z,17.70
2018-09-27T21:04:39.976Z,17.70
2018-09-27T21:07:08.084Z,17.60
2018-09-27T21:09:36.297Z,17.60
2018-09-27T21:12:04.387Z,17.70
2018-09-27T21:14:32.576Z,17.60
2018-09-27T21:17:00.646Z,17.50
2018-09-27T21:19:28.911Z,17.40
2018-09-27T21:21:56.990Z,17.30
2018-09-27T21:24:31.845Z,17.30
2018-09-27T21:26:59.944Z,17.30
2018-09-27T21:29:28.191Z,17.30
2018-09-27T21:31:56.334Z,17.40
2018-09-27T21:34:24.482Z,17.30
2018-09-27T21:36:52.600Z,17.30
2018-09-27T21:39:20.694Z,17.20
2018-09-27T21:41:48.887Z,17.20
2018-09-27T21:44:16.969Z,17.30
2018-09-27T21:46:45.199Z,17.40
2018-09-27T21:49:13.305Z,17.30
2018-09-27T21:51:41.480Z,17.20
2018-09-27T21:54:09.587Z,17.20
2018-09-27T21:56:37.814Z,17.10
2018-09-27T21:59:05.941Z,17.10
2018-09-27T22:01:34.259Z,17.10
2018-09-27T22:04:02.366Z,17.10
2018-09-27T22:06:30.443Z,17.10
2018-09-27T22:08:58.542Z,17.10
2018-09-27T22:11:26.762Z,17.00
2018-09-27T22:13:55.002Z,17.00
2018-09-27T22:16:23.099Z,17.10
2018-09-27T22:18:51.182Z,17.00
2018-09-27T22:21:19.268Z,17.20
2018-09-27T22:23:47.335Z,17.10
2018-09-27T22:26:15.438Z,17.20
2018-09-27T22:28:43.519Z,17.20
2018-09-27T22:31:11.579Z,17.10
2018-09-27T22:33:39.876Z,17.00
2018-09-27T22:36:08.179Z,17.00
2018-09-27T22:38:36.279Z,16.90
2018-09-27T22:41:04.354Z,16.80
2018-09-27T22:43:33.394Z,16.70
2018-09-27T22:46:01.488Z,16.60
2018-09-27T22:48:29.640Z,16.60
2018-09-27T22:50:57.770Z,16.60
2018-09-27T22:53:25.978Z,16.60
2018-09-27T22:55:54.277Z,16.60
2018-09-27T22:58:22.363Z,16.50
2018-09-27T23:00:50.452Z,16.50
2018-09-27T23:03:18.523Z,16.50
2018-09-27T23:05:46.598Z,16.50
2018-09-27T23:08:14.869Z,16.40
2018-09-27T23:10:43.104Z,16.30
2018-09-27T23:13:11.183Z,16.30
2018-09-27T23:15:39.610Z,16.30
2018-09-27T23:18:07.678Z,16.30
2018-09-27T23:20:35.759Z,16.30
2018-09-27T23:23:03.831Z,16.20
2018-09-27T23:25:31.895Z,16.10
2018-09-27T23:28:00.163Z,16.00
2018-09-27T23:30:28.239Z,16.10
2018-09-27T23:32:56.339Z,16.20
2018-09-27T23:35:24.410Z,16.00
2018-09-27T23:37:52.504Z,15.90
2018-09-27T23:40:21.031Z,15.80
2018-09-27T23:42:49.123Z,15.70
2018-09-27T23:45:17.415Z,15.70
2018-09-27T23:47:45.502Z,15.60
2018-09-27T23:50:14.087Z,15.60
2018-09-27T23:52:42.187Z,15.60
2018-09-27T23:55:10.263Z,15.50
2018-09-27T23:57:38.328Z,15.60
